createdAt,value
2022-11-10T00:01:20.587Z,21.20
2022-11-10T00:02:48.014Z,21.20
2022-11-10T00:04:11.430Z,21.10
2022-11-10T00:05:33.072Z,21.20
2022-11-10T00:06:53.884Z,21.20
2022-11-10T00:08:17.573Z,21.20
2022-11-10T00:09:39.661Z,21.20
2022-11-10T00:11:10.424Z,21.20
2022-11-10T00:12:32.650Z,21.20
2022-11-10T00:14:12.077Z,21.20
2022-11-10T00:15:51.855Z,21.20
2022-11-10T00:17:13.356Z,21.20
2022-11-10T00:18:34.263Z,21.20
2022-11-10T00:19:58.161Z,21.20
2022-11-10T00:21:20.514Z,21.20
2022-11-10T00:22:42.476Z,21.20
2022-11-10T00:24:07.112Z,21.10
2022-11-10T00:25:28.368Z,21.20
2022-11-10T00:26:52.617Z,21.20
2022-11-10T00:28:16.225Z,21.20
2022-11-10T00:29:42.576Z,21.20
2022-11-10T00:31:07.153Z,21.20
2022-11-10T00:32:28.151Z,21.20
2022-11-10T00:33:49.421Z,21.30
2022-11-10T00:35:10.511Z,21.20
2022-11-10T00:36:31.945Z,21.20
2022-11-10T00:37:52.735Z,21.20
2022-11-10T00:39:16.783Z,21.20
2022-11-10T00:40:37.582Z,21.20
2022-11-10T00:41:58.921Z,21.20
2022-11-10T00:43:23.888Z,21.20
2022-11-10T00:44:47.684Z,21.20
2022-11-10T00:46:08.487Z,21.20
2022-11-10T00:47:30.116Z,21.20
2022-11-10T00:48:51.631Z,21.20
2022-11-10T00:50:14.600Z,21.20
2022-11-10T00:51:35.555Z,21.20
2022-11-10T00:52:59.236Z,21.20
2022-11-10T00:54:21.183Z,21.20
2022-11-10T00:55:42.771Z,21.20
2022-11-10T00:57:04.330Z,21.20
2022-11-10T00:58:25.432Z,21.20
2022-11-10T00:59:51.342Z,21.20
2022-11-10T01:01:13.122Z,21.20
2022-11-10T01:02:34.220Z,21.20
2022-11-10T01:03:55.777Z,21.20
2022-11-10T01:05:18.831Z,21.20
2022-11-10T01:06:39.728Z,21.20
2022-11-10T01:08:00.607Z,21.20
2022-11-10T01:09:22.765Z,21.10
2022-11-10T01:10:49.038Z,21.10
2022-11-10T01:12:12.010Z,21.10
2022-11-10T01:13:33.489Z,21.20
2022-11-10T01:14:56.640Z,21.20
2022-11-10T01:16:29.265Z,21.20
2022-11-10T01:17:53.402Z,21.20
2022-11-10T01:19:14.148Z,21.20
2022-11-10T01:20:36.573Z,21.20
2022-11-10T01:22:01.147Z,21.10
2022-11-10T01:23:22.331Z,21.20
2022-11-10T01:24:43.809Z,21.10
2022-11-10T01:26:09.666Z,21.20
2022-11-10T01:27:31.667Z,21.20
2022-11-10T01:28:55.245Z,21.20
2022-11-10T01:30:17.827Z,21.20
2022-11-10T01:31:38.948Z,21.10
2022-11-10T01:33:00.032Z,21.10
2022-11-10T01:34:23.421Z,21.20
2022-11-10T01:35:46.061Z,21.10
2022-11-10T01:37:07.624Z,21.20
2022-11-10T01:38:32.533Z,21.20
2022-11-10T01:39:53.212Z,21.20
2022-11-10T01:41:15.191Z,21.20
2022-11-10T01:53:04.820Z,21.20
2022-11-10T01:54:29.342Z,21.20
2022-11-10T01:55:51.466Z,21.20
2022-11-10T01:57:21.037Z,21.20
2022-11-10T01:58:59.080Z,21.10
2022-11-10T02:00:20.041Z,21.20
2022-11-10T02:01:48.769Z,21.20
2022-11-10T02:03:26.817Z,21.20
2022-11-10T02:04:52.671Z,21.20
2022-11-10T02:06:17.179Z,21.20
2022-11-10T02:07:39.082Z,21.20
2022-11-10T02:13:43.350Z,21.10
2022-11-10T02:15:10.157Z,21.20
2022-11-10T02:16:31.546Z,21.10
2022-11-10T02:17:54.978Z,21.20
2022-11-10T02:19:21.720Z,21.10
2022-11-10T02:20:45.295Z,21.10
2022-11-10T02:22:09.541Z,21.20
2022-11-10T02:23:30.287Z,21.10
2022-11-10T02:24:51.382Z,21.20
2022-11-10T02:26:14.472Z,21.10
2022-11-10T02:27:35.348Z,21.20
2022-11-10T02:28:57.883Z,21.10
2022-11-10T02:30:26.495Z,21.20
2022-11-10T02:31:48.657Z,21.20
2022-11-10T02:33:19.406Z,21.10
2022-11-10T02:34:40.683Z,21.10
2022-11-10T02:36:01.891Z,21.10
2022-11-10T02:37:22.677Z,21.10
2022-11-10T02:38:46.090Z,21.10
2022-11-10T02:40:10.500Z,21.20
2022-11-10T02:41:32.540Z,21.10
2022-11-10T02:42:55.824Z,21.20
2022-11-10T02:44:23.728Z,21.20
2022-11-10T02:45:44.815Z,21.10
2022-11-10T02:57:37.435Z,21.10
2022-11-10T02:58:58.387Z,21.10
2022-11-10T03:00:19.824Z,21.10
2022-11-10T03:01:40.996Z,21.20
2022-11-10T03:03:02.702Z,21.20
2022-11-10T03:04:23.841Z,21.10
2022-11-10T03:05:45.637Z,21.20
2022-11-10T03:07:09.052Z,21.10
2022-11-10T03:08:29.820Z,21.10
2022-11-10T03:09:53.180Z,21.20
2022-11-10T03:11:16.721Z,21.20
2022-11-10T03:12:40.872Z,21.10
2022-11-10T03:14:02.826Z,21.20
2022-11-10T03:15:25.055Z,21.20
2022-11-10T03:16:46.441Z,21.10
2022-11-10T03:18:11.698Z,21.10
2022-11-10T03:19:32.608Z,21.10
2022-11-10T03:20:56.036Z,21.10
2022-11-10T03:22:16.707Z,21.10
2022-11-10T03:23:37.628Z,21.10
2022-11-10T03:24:58.586Z,21.20
2022-11-10T03:26:19.434Z,21.10
2022-11-10T03:27:43.477Z,21.10
2022-11-10T03:29:04.714Z,21.10
2022-11-10T03:38:49.673Z,21.10
2022-11-10T03:40:11.121Z,21.10
2022-11-10T03:41:33.799Z,21.20
2022-11-10T03:42:57.707Z,21.20
2022-11-10T03:44:18.631Z,21.10
2022-11-10T03:45:39.636Z,21.10
2022-11-10T03:47:03.120Z,21.10
2022-11-10T03:48:24.291Z,21.10
2022-11-10T03:49:45.079Z,21.10
2022-11-10T03:51:09.056Z,21.10
2022-11-10T03:52:33.638Z,21.10
2022-11-10T04:00:05.319Z,21.20
2022-11-10T04:01:26.536Z,21.10
2022-11-10T04:02:50.633Z,21.10
2022-11-10T04:04:31.390Z,21.20
2022-11-10T04:06:11.302Z,21.10
2022-11-10T04:07:52.140Z,21.10
2022-11-10T04:09:13.178Z,21.10
2022-11-10T04:10:36.499Z,21.10
2022-11-10T04:18:56.025Z,21.10
2022-11-10T04:20:17.457Z,21.10
2022-11-10T04:21:38.511Z,21.10
2022-11-10T04:23:18.602Z,21.10
2022-11-10T04:24:39.818Z,21.10
2022-11-10T04:26:27.785Z,21.10
2022-11-10T04:27:48.717Z,21.10
2022-11-10T04:29:11.767Z,21.20
2022-11-10T04:30:32.582Z,21.20
2022-11-10T04:31:53.655Z,21.10
2022-11-10T04:33:14.720Z,21.10
2022-11-10T04:34:36.086Z,21.10
2022-11-10T04:35:57.155Z,21.10
2022-11-10T04:37:19.368Z,21.10
2022-11-10T04:38:41.534Z,21.10
2022-11-10T04:40:02.578Z,21.10
2022-11-10T04:41:28.019Z,21.10
2022-11-10T04:42:48.848Z,21.10
2022-11-10T04:44:09.736Z,21.10
2022-11-10T04:45:30.643Z,21.10
2022-11-10T04:46:52.125Z,21.10
2022-11-10T04:48:13.221Z,21.10
2022-11-10T04:49:34.059Z,21.10
2022-11-10T04:50:54.890Z,21.10
2022-11-10T04:52:15.613Z,21.10
2022-11-10T04:53:36.615Z,21.10
2022-11-10T04:54:57.411Z,21.20
2022-11-10T04:56:27.325Z,21.20
2022-11-10T04:57:48.459Z,21.10
2022-11-10T04:59:09.678Z,21.10
2022-11-10T05:00:30.458Z,21.10
2022-11-10T05:01:51.469Z,21.10
2022-11-10T05:03:13.736Z,21.10
2022-11-10T05:04:34.530Z,21.10
2022-11-10T05:05:55.515Z,21.10
2022-11-10T05:07:16.823Z,21.10
2022-11-10T05:08:38.967Z,21.10
2022-11-10T05:09:59.755Z,21.20
2022-11-10T05:11:20.804Z,21.10
2022-11-10T05:12:41.582Z,21.10
2022-11-10T05:14:02.452Z,21.10
2022-11-10T05:15:24.158Z,21.20
2022-11-10T05:16:45.280Z,21.10
2022-11-10T05:18:06.071Z,21.10
2022-11-10T05:19:29.472Z,21.10
2022-11-10T05:20:50.573Z,21.10
2022-11-10T05:22:11.348Z,21.10
2022-11-10T05:23:38.922Z,21.10
2022-11-10T05:25:00.879Z,21.10
2022-11-10T05:26:21.916Z,21.10
2022-11-10T05:27:42.949Z,21.10
2022-11-10T05:29:03.884Z,21.10
2022-11-10T05:30:24.695Z,21.10
2022-11-10T05:31:51.506Z,21.10
2022-11-10T05:33:13.049Z,21.10
2022-11-10T05:34:34.001Z,21.10
2022-11-10T05:35:54.875Z,21.10
2022-11-10T05:37:15.921Z,21.10
2022-11-10T05:38:42.113Z,21.10
2022-11-10T05:40:05.836Z,21.10
2022-11-10T05:41:26.849Z,21.10
2022-11-10T05:42:49.726Z,21.10
2022-11-10T05:44:10.583Z,21.10
2022-11-10T05:45:31.649Z,21.10
2022-11-10T05:46:52.343Z,21.10
2022-11-10T05:48:13.388Z,21.20
2022-11-10T05:49:34.132Z,21.10
2022-11-10T05:50:55.076Z,21.10
2022-11-10T05:52:16.221Z,21.10
2022-11-10T05:53:37.061Z,21.10
2022-11-10T05:54:58.053Z,21.10
2022-11-10T05:56:18.967Z,21.10
2022-11-10T05:57:43.594Z,21.20
2022-11-10T05:59:04.766Z,21.10
2022-11-10T06:00:28.481Z,21.10
2022-11-10T06:01:49.275Z,21.10
2022-11-10T06:03:20.426Z,21.10
2022-11-10T06:04:41.928Z,21.10
2022-11-10T06:06:02.937Z,21.10
2022-11-10T06:07:24.196Z,21.10
2022-11-10T06:08:45.423Z,21.10
2022-11-10T06:10:06.970Z,21.20
2022-11-10T06:11:27.997Z,21.10
2022-11-10T06:12:48.857Z,21.10
2022-11-10T06:14:09.801Z,21.10
2022-11-10T06:15:31.487Z,21.10
2022-11-10T06:16:52.357Z,21.10
2022-11-10T06:18:13.056Z,21.10
2022-11-10T06:19:34.186Z,21.10
2022-11-10T06:20:56.411Z,21.10
2022-11-10T06:22:17.511Z,21.10
2022-11-10T06:23:38.156Z,21.10
2022-11-10T06:24:59.426Z,21.10
2022-11-10T06:26:20.208Z,21.20
2022-11-10T06:27:44.843Z,21.10
2022-11-10T06:29:05.747Z,21.10
2022-11-10T06:30:28.061Z,21.10
2022-11-10T06:31:48.876Z,21.10
2022-11-10T06:33:09.931Z,21.10
2022-11-10T06:34:31.103Z,21.10
2022-11-10T06:35:53.100Z,21.20
2022-11-10T06:37:13.918Z,21.10
2022-11-10T06:38:37.397Z,21.10
2022-11-10T06:39:58.275Z,21.10
2022-11-10T06:41:24.232Z,21.10
2022-11-10T06:42:46.388Z,21.10
2022-11-10T06:44:07.649Z,21.10
2022-11-10T06:45:29.049Z,21.10
2022-11-10T06:46:50.103Z,21.10
2022-11-10T06:48:14.881Z,21.10
2022-11-10T06:49:35.900Z,21.20
2022-11-10T06:51:02.653Z,21.10
2022-11-10T06:52:24.918Z,21.10
2022-11-10T06:53:48.570Z,21.10
2022-11-10T06:55:09.691Z,21.10
2022-11-10T06:56:30.749Z,21.10
2022-11-10T06:57:51.928Z,21.10
2022-11-10T06:59:12.662Z,21.10
2022-11-10T07:00:33.453Z,21.10
2022-11-10T07:01:54.501Z,21.10
2022-11-10T07:03:16.105Z,21.10
2022-11-10T07:04:36.797Z,21.10
2022-11-10T07:05:58.591Z,21.10
2022-11-10T07:07:21.847Z,21.10
2022-11-10T07:08:45.418Z,21.10
2022-11-10T07:16:19.351Z,21.10
2022-11-10T07:17:51.484Z,21.10
2022-11-10T07:19:13.215Z,21.10
2022-11-10T07:20:35.354Z,21.10
2022-11-10T07:21:56.543Z,21.10
2022-11-10T07:23:20.977Z,21.10
2022-11-10T07:24:44.437Z,21.10
2022-11-10T07:26:05.711Z,21.10
2022-11-10T07:27:26.698Z,21.10
2022-11-10T07:28:48.629Z,21.10
2022-11-10T07:30:13.952Z,21.10
2022-11-10T07:31:39.669Z,21.10
2022-11-10T07:33:11.081Z,21.10
2022-11-10T07:34:35.832Z,21.10
2022-11-10T07:35:58.637Z,21.10
2022-11-10T07:37:19.895Z,21.10
2022-11-10T07:38:40.893Z,21.10
2022-11-10T07:40:01.978Z,21.10
2022-11-10T07:41:25.790Z,21.10
2022-11-10T07:42:46.652Z,21.10
2022-11-10T07:44:07.670Z,21.10
2022-11-10T07:45:29.158Z,21.10
2022-11-10T07:46:50.121Z,21.10
2022-11-10T07:48:11.275Z,21.10
2022-11-10T07:49:32.021Z,21.10
2022-11-10T07:50:56.706Z,21.10
2022-11-10T07:52:17.735Z,21.10
2022-11-10T07:53:39.882Z,21.10
2022-11-10T07:55:05.300Z,21.10
2022-11-10T07:56:27.137Z,21.10
2022-11-10T07:57:50.269Z,21.10
2022-11-10T07:59:11.050Z,21.10
2022-11-10T08:00:38.261Z,21.10
2022-11-10T08:01:59.143Z,21.10
2022-11-10T08:03:23.903Z,21.10
2022-11-10T08:04:48.136Z,21.10
2022-11-10T08:06:12.120Z,21.10
2022-11-10T08:07:32.944Z,21.10
2022-11-10T08:08:53.976Z,21.10
2022-11-10T08:10:17.509Z,21.10
2022-11-10T08:11:40.658Z,21.10
2022-11-10T08:13:03.842Z,21.10
2022-11-10T08:14:24.931Z,21.20
2022-11-10T08:15:50.601Z,21.10
2022-11-10T08:17:13.581Z,21.10
2022-11-10T08:18:35.715Z,21.10
2022-11-10T08:19:58.517Z,21.10
2022-11-10T08:21:20.162Z,21.10
2022-11-10T08:22:43.622Z,21.10
2022-11-10T08:24:04.968Z,21.10
2022-11-10T08:25:34.457Z,21.10
2022-11-10T08:26:56.421Z,21.10
2022-11-10T08:28:21.559Z,21.10
2022-11-10T08:29:42.759Z,21.20
2022-11-10T08:31:08.919Z,21.10
2022-11-10T08:32:30.915Z,21.10
2022-11-10T08:33:55.499Z,21.10
2022-11-10T08:35:16.684Z,21.10
2022-11-10T08:36:40.828Z,21.10
2022-11-10T08:38:10.311Z,21.10
2022-11-10T08:39:39.699Z,21.10
2022-11-10T08:41:07.044Z,21.10
2022-11-10T08:42:30.781Z,21.10
2022-11-10T08:43:55.061Z,21.10
2022-11-10T08:45:18.750Z,21.10
2022-11-10T08:46:46.382Z,21.20
2022-11-10T08:48:15.331Z,21.10
2022-11-10T08:49:39.136Z,21.10
2022-11-10T08:51:01.929Z,21.10
2022-11-10T08:52:22.977Z,21.10
2022-11-10T08:53:44.415Z,21.10
2022-11-10T08:55:06.873Z,21.10
2022-11-10T08:56:28.794Z,21.10
2022-11-10T08:57:50.006Z,21.20
2022-11-10T08:59:15.240Z,21.10
2022-11-10T09:02:11.365Z,21.20
2022-11-10T09:03:32.406Z,21.20
2022-11-10T09:04:53.543Z,21.20
2022-11-10T09:06:14.631Z,21.20
2022-11-10T09:07:47.115Z,21.20
2022-11-10T09:09:07.995Z,21.20
2022-11-10T09:10:29.559Z,21.20
2022-11-10T09:11:53.410Z,21.20
2022-11-10T09:13:15.716Z,21.20
2022-11-10T09:14:36.626Z,21.20
2022-11-10T09:16:05.133Z,21.20
2022-11-10T09:17:26.368Z,21.20
2022-11-10T09:18:47.863Z,21.20
2022-11-10T09:20:19.254Z,21.20
2022-11-10T09:21:48.128Z,21.20
2022-11-10T09:23:14.498Z,21.20
2022-11-10T09:24:36.812Z,21.20
2022-11-10T09:25:57.855Z,21.20
2022-11-10T09:27:19.512Z,21.20
2022-11-10T09:28:40.800Z,21.20
2022-11-10T09:30:05.307Z,21.20
2022-11-10T09:31:33.334Z,21.20
2022-11-10T09:32:59.384Z,21.20
2022-11-10T09:34:20.046Z,21.20
2022-11-10T09:35:41.617Z,21.20
2022-11-10T09:37:08.343Z,21.20
2022-11-10T09:38:32.396Z,21.20
2022-11-10T09:39:53.622Z,21.20
2022-11-10T09:41:19.441Z,21.20
2022-11-10T09:42:45.802Z,21.20
2022-11-10T09:44:24.986Z,21.20
2022-11-10T09:45:49.172Z,21.20
2022-11-10T09:47:50.801Z,21.20
2022-11-10T09:49:32.340Z,21.20
2022-11-10T09:51:02.478Z,21.20
2022-11-10T09:52:29.640Z,21.20
2022-11-10T09:53:59.600Z,21.20
2022-11-10T09:55:48.916Z,21.20
2022-11-10T09:57:16.420Z,21.20
2022-11-10T09:58:46.206Z,21.20
2022-11-10T10:00:14.903Z,21.20
2022-11-10T10:01:48.685Z,21.20
2022-11-10T10:03:17.900Z,21.20
2022-11-10T10:05:16.683Z,21.20
2022-11-10T10:07:10.270Z,21.20
2022-11-10T10:08:56.891Z,21.20
2022-11-10T10:10:32.859Z,21.20
2022-11-10T10:12:13.975Z,21.20
2022-11-10T10:14:01.623Z,21.20
2022-11-10T10:15:37.440Z,21.20
2022-11-10T10:17:13.465Z,21.20
2022-11-10T10:18:46.448Z,21.20
2022-11-10T10:20:28.543Z,21.20
2022-11-10T10:22:09.161Z,21.20
2022-11-10T10:25:34.782Z,21.20
2022-11-10T10:27:04.525Z,21.20
2022-11-10T10:28:43.049Z,21.20
2022-11-10T10:30:13.658Z,21.20
2022-11-10T10:31:40.250Z,21.20
2022-11-10T10:33:24.757Z,21.20
2022-11-10T10:34:50.519Z,21.20
2022-11-10T10:36:21.795Z,21.20
2022-11-10T10:37:50.793Z,21.20
2022-11-10T10:39:16.816Z,21.20
2022-11-10T10:40:43.975Z,21.20
2022-11-10T10:42:15.376Z,21.20
2022-11-10T10:43:39.089Z,21.20
2022-11-10T10:45:18.927Z,21.20
2022-11-10T10:46:57.983Z,21.20
2022-11-10T10:48:31.176Z,21.20
2022-11-10T10:49:52.341Z,21.20
2022-11-10T10:51:29.892Z,21.20
2022-11-10T10:53:15.029Z,21.20
2022-11-10T10:54:38.276Z,21.20
2022-11-10T10:56:05.896Z,21.20
2022-11-10T10:57:30.048Z,21.10
2022-11-10T10:59:02.898Z,21.20
2022-11-10T11:00:24.759Z,21.20
2022-11-10T11:01:45.585Z,21.20
2022-11-10T11:03:30.888Z,21.20
2022-11-10T11:05:16.522Z,21.20
2022-11-10T11:06:37.392Z,21.20
2022-11-10T11:08:00.849Z,21.20
2022-11-10T11:09:30.291Z,21.20
2022-11-10T11:10:51.606Z,21.20
2022-11-10T11:12:30.992Z,21.20
2022-11-10T11:13:57.848Z,21.20
2022-11-10T11:15:31.487Z,21.20
2022-11-10T11:16:58.814Z,21.20
2022-11-10T11:18:23.762Z,21.20
2022-11-10T11:20:00.170Z,21.20
2022-11-10T11:21:36.392Z,21.20
2022-11-10T11:23:06.167Z,21.20
2022-11-10T11:25:04.263Z,21.20
2022-11-10T11:26:46.829Z,21.20
2022-11-10T11:28:43.293Z,21.20
2022-11-10T11:30:19.560Z,21.20
2022-11-10T11:31:59.723Z,21.20
2022-11-10T11:33:58.125Z,21.20
2022-11-10T11:35:39.626Z,21.20
2022-11-10T11:37:45.664Z,21.20
2022-11-10T11:39:30.607Z,21.20
2022-11-10T11:41:02.545Z,21.20
2022-11-10T11:42:26.287Z,21.20
2022-11-10T11:44:41.960Z,21.20
2022-11-10T11:46:18.385Z,21.20
2022-11-10T11:48:04.655Z,21.20
2022-11-10T11:50:02.727Z,21.20
2022-11-10T11:51:39.116Z,21.20
2022-11-10T11:53:16.991Z,21.20
2022-11-10T11:55:03.493Z,21.20
2022-11-10T11:56:25.946Z,21.20
2022-11-10T11:58:23.343Z,21.20
2022-11-10T12:00:01.004Z,21.20
2022-11-10T12:01:41.429Z,21.20
2022-11-10T12:03:20.035Z,21.20
2022-11-10T12:05:18.015Z,21.20
2022-11-10T12:07:01.848Z,21.20
2022-11-10T12:08:47.301Z,21.20
2022-11-10T12:10:46.843Z,21.20
2022-11-10T12:12:52.552Z,21.20
2022-11-10T12:14:32.845Z,21.20
2022-11-10T12:16:03.063Z,21.20
2022-11-10T12:17:48.275Z,21.20
2022-11-10T12:19:25.870Z,21.20
2022-11-10T12:20:55.695Z,21.20
2022-11-10T12:22:46.766Z,21.30
2022-11-10T12:24:45.023Z,21.30
2022-11-10T12:26:28.759Z,21.30
2022-11-10T12:28:29.383Z,21.30
2022-11-10T12:29:58.332Z,21.30
2022-11-10T12:31:26.380Z,21.30
2022-11-10T12:33:05.120Z,21.30
2022-11-10T12:34:34.400Z,21.30
2022-11-10T12:48:40.772Z,21.40
2022-11-10T12:50:16.680Z,21.40
2022-11-10T12:52:05.197Z,21.40
2022-11-10T12:53:30.607Z,21.40
2022-11-10T12:54:51.668Z,21.40
2022-11-10T12:56:33.424Z,21.40
2022-11-10T12:58:01.935Z,21.40
2022-11-10T12:59:28.096Z,21.40
2022-11-10T13:01:02.890Z,21.40
2022-11-10T13:02:43.634Z,21.40
2022-11-10T13:04:05.619Z,21.40
2022-11-10T13:05:54.805Z,21.40
2022-11-10T13:07:24.588Z,21.50
2022-11-10T13:08:52.351Z,21.50
2022-11-10T13:10:18.992Z,21.50
2022-11-10T13:11:43.323Z,21.50
2022-11-10T13:13:05.125Z,21.50
2022-11-10T13:14:31.311Z,21.50
2022-11-10T13:15:57.811Z,21.50
2022-11-10T13:17:32.798Z,21.50
2022-11-10T13:18:58.316Z,21.50
2022-11-10T13:20:40.648Z,21.50
2022-11-10T13:22:01.719Z,21.50
2022-11-10T13:23:46.746Z,21.50
2022-11-10T13:26:08.841Z,21.50
2022-11-10T13:27:44.341Z,21.50
2022-11-10T13:29:32.144Z,21.50
2022-11-10T13:30:54.485Z,21.50
2022-11-10T13:32:28.899Z,21.50
2022-11-10T13:34:26.246Z,21.60
2022-11-10T13:35:58.045Z,21.60
2022-11-10T13:37:34.180Z,21.60
2022-11-10T13:38:58.488Z,21.60
2022-11-10T13:40:25.310Z,21.60
2022-11-10T13:42:19.963Z,21.60
2022-11-10T13:43:58.378Z,21.60
2022-11-10T13:45:43.872Z,21.60
2022-11-10T13:47:07.620Z,21.60
2022-11-10T13:48:36.394Z,21.60
2022-11-10T13:50:22.119Z,21.60
2022-11-10T13:51:54.784Z,21.60
2022-11-10T13:53:46.610Z,21.60
2022-11-10T13:55:16.492Z,21.60
2022-11-10T13:57:08.966Z,21.70
2022-11-10T13:58:36.612Z,21.60
2022-11-10T14:00:02.217Z,21.60
2022-11-10T14:01:30.223Z,21.70
2022-11-10T14:02:58.202Z,21.70
2022-11-10T14:04:43.672Z,21.70
2022-11-10T14:06:22.995Z,21.70
2022-11-10T14:07:49.420Z,21.70
2022-11-10T14:09:19.385Z,21.70
2022-11-10T14:11:04.066Z,21.70
2022-11-10T14:12:53.352Z,21.70
2022-11-10T14:14:20.737Z,21.70
2022-11-10T14:15:45.049Z,21.70
2022-11-10T14:17:29.266Z,21.70
2022-11-10T14:19:07.422Z,21.80
2022-11-10T14:20:45.427Z,21.80
2022-11-10T14:22:37.847Z,21.70
2022-11-10T14:24:14.739Z,21.70
2022-11-10T14:25:49.025Z,21.80
2022-11-10T14:27:21.014Z,21.80
2022-11-10T14:28:43.490Z,21.80
2022-11-10T14:30:07.902Z,21.80
2022-11-10T14:31:29.253Z,21.80
2022-11-10T14:34:50.182Z,21.80
2022-11-10T14:36:17.593Z,21.80
2022-11-10T14:37:43.111Z,21.80
2022-11-10T14:39:06.778Z,21.80
2022-11-10T14:40:33.109Z,21.80
2022-11-10T14:41:55.907Z,21.80
2022-11-10T14:43:43.729Z,21.80
2022-11-10T14:45:18.722Z,21.80
2022-11-10T14:46:42.570Z,21.80
2022-11-10T14:48:03.263Z,21.80
2022-11-10T14:49:27.786Z,21.80
2022-11-10T14:50:53.039Z,21.80
2022-11-10T14:52:40.458Z,21.80
2022-11-10T14:54:03.522Z,21.80
2022-11-10T14:55:28.559Z,21.80
2022-11-10T14:56:54.111Z,21.80
2022-11-10T14:58:24.317Z,21.90
2022-11-10T14:59:46.106Z,21.80
2022-11-10T15:01:20.672Z,21.80
2022-11-10T15:02:41.933Z,21.80
2022-11-10T15:04:09.091Z,21.80
2022-11-10T15:05:31.479Z,21.80
2022-11-10T15:06:53.498Z,21.90
2022-11-10T15:08:16.851Z,21.90
2022-11-10T15:09:39.761Z,21.80
2022-11-10T15:11:00.517Z,21.90
2022-11-10T15:12:28.178Z,21.80
2022-11-10T15:13:54.934Z,21.90
2022-11-10T15:15:22.592Z,21.90
2022-11-10T15:17:04.255Z,21.90
2022-11-10T15:18:27.982Z,21.90
2022-11-10T15:19:54.994Z,21.90
2022-11-10T15:21:22.251Z,21.90
2022-11-10T15:22:47.245Z,21.90
2022-11-10T15:24:17.786Z,21.90
2022-11-10T15:25:43.037Z,21.90
2022-11-10T15:27:03.930Z,21.90
2022-11-10T15:28:37.230Z,21.90
2022-11-10T15:30:00.795Z,21.90
2022-11-10T15:31:26.964Z,21.90
2022-11-10T15:33:11.379Z,21.90
2022-11-10T15:34:44.706Z,21.90
2022-11-10T15:36:17.416Z,21.90
2022-11-10T15:37:41.877Z,21.90
2022-11-10T15:39:20.121Z,21.90
2022-11-10T15:40:51.267Z,21.90
2022-11-10T15:42:26.173Z,21.90
2022-11-10T15:43:47.472Z,21.90
2022-11-10T15:45:16.306Z,21.90
2022-11-10T15:46:45.906Z,22.00
2022-11-10T15:48:18.968Z,22.00
2022-11-10T15:49:44.888Z,21.90
2022-11-10T15:51:06.531Z,22.00
2022-11-10T15:52:35.094Z,22.00
2022-11-10T15:53:56.132Z,22.00
2022-11-10T15:55:25.916Z,22.00
2022-11-10T15:56:46.704Z,22.00
2022-11-10T15:58:26.030Z,22.00
2022-11-10T16:01:41.812Z,22.00
2022-11-10T16:03:06.676Z,22.00
2022-11-10T16:04:28.024Z,22.00
2022-11-10T16:05:48.814Z,22.00
2022-11-10T16:07:10.544Z,22.00
2022-11-10T16:08:35.453Z,22.00
2022-11-10T16:09:56.904Z,22.00
2022-11-10T16:11:20.603Z,22.00
2022-11-10T16:12:41.564Z,22.00
2022-11-10T16:14:04.365Z,22.00
2022-11-10T16:15:25.518Z,22.10
2022-11-10T16:16:52.911Z,22.00
2022-11-10T16:18:22.384Z,22.00
2022-11-10T16:19:43.884Z,22.00
2022-11-10T16:21:05.971Z,22.00
2022-11-10T16:22:27.419Z,22.00
2022-11-10T16:23:49.618Z,22.00
2022-11-10T16:25:22.633Z,22.00
2022-11-10T16:26:46.222Z,22.00
2022-11-10T16:28:10.135Z,22.00
2022-11-10T16:29:35.576Z,22.10
2022-11-10T16:31:02.814Z,22.00
2022-11-10T16:32:28.641Z,22.00
2022-11-10T16:33:52.673Z,22.00
2022-11-10T16:35:16.313Z,22.10
2022-11-10T16:36:38.164Z,22.10
2022-11-10T16:38:01.678Z,22.10
2022-11-10T16:39:24.266Z,22.10
2022-11-10T16:40:53.048Z,22.10
2022-11-10T16:42:13.979Z,22.10
2022-11-10T16:43:34.857Z,22.10
2022-11-10T16:44:57.343Z,22.10
2022-11-10T16:46:32.525Z,22.10
2022-11-10T16:47:58.905Z,22.10
2022-11-10T16:49:22.743Z,22.10
2022-11-10T16:50:45.599Z,22.10
2022-11-10T16:52:19.121Z,22.10
2022-11-10T16:53:43.760Z,22.10
2022-11-10T16:55:05.062Z,22.10
2022-11-10T16:56:27.075Z,22.10
2022-11-10T16:57:50.344Z,22.10
2022-11-10T16:59:11.568Z,22.10
2022-11-10T17:00:33.084Z,22.10
2022-11-10T17:01:57.383Z,22.10
2022-11-10T17:03:29.434Z,22.10
2022-11-10T17:04:50.273Z,22.10
2022-11-10T17:06:13.588Z,22.10
2022-11-10T17:07:42.980Z,22.00
2022-11-10T17:09:26.949Z,22.00
2022-11-10T17:10:48.448Z,22.10
2022-11-10T17:12:13.629Z,22.10
2022-11-10T17:13:34.503Z,22.10
2022-11-10T17:14:55.201Z,22.00
2022-11-10T17:16:37.181Z,22.00
2022-11-10T17:18:05.067Z,22.00
2022-11-10T17:19:26.831Z,22.00
2022-11-10T17:20:51.155Z,22.00
2022-11-10T17:22:22.738Z,22.00
2022-11-10T17:23:47.339Z,22.00
2022-11-10T17:25:18.628Z,22.00
2022-11-10T17:26:39.928Z,22.00
2022-11-10T17:28:01.053Z,22.00
2022-11-10T17:29:22.201Z,22.00
2022-11-10T17:30:50.201Z,22.00
2022-11-10T17:32:15.231Z,22.00
2022-11-10T17:33:36.313Z,22.00
2022-11-10T17:34:57.327Z,22.00
2022-11-10T17:36:22.827Z,22.00
2022-11-10T17:37:52.071Z,22.00
2022-11-10T17:39:16.754Z,22.00
2022-11-10T17:40:43.560Z,22.00
2022-11-10T17:42:04.610Z,22.00
2022-11-10T17:43:28.538Z,21.90
2022-11-10T17:44:49.369Z,22.00
2022-11-10T17:46:10.663Z,21.90
2022-11-10T17:47:31.478Z,21.90
2022-11-10T17:49:00.091Z,21.90
2022-11-10T17:50:25.435Z,22.00
2022-11-10T17:51:46.531Z,21.90
2022-11-10T17:53:18.961Z,21.90
2022-11-10T17:54:40.373Z,21.90
2022-11-10T17:56:04.162Z,21.90
2022-11-10T17:57:27.701Z,21.90
2022-11-10T17:58:49.094Z,21.90
2022-11-10T18:00:10.708Z,21.90
2022-11-10T18:01:33.838Z,21.90
2022-11-10T18:02:55.565Z,21.80
2022-11-10T18:04:16.735Z,21.90
2022-11-10T18:05:38.348Z,21.90
2022-11-10T18:06:59.242Z,21.90
2022-11-10T18:08:20.579Z,21.90
2022-11-10T18:09:41.562Z,21.80
2022-11-10T18:11:02.446Z,21.90
2022-11-10T18:12:27.773Z,21.90
2022-11-10T18:13:52.413Z,21.90
2022-11-10T18:15:16.596Z,21.80
2022-11-10T18:16:41.663Z,21.80
2022-11-10T18:18:03.676Z,21.80
2022-11-10T18:19:24.342Z,21.80
2022-11-10T18:20:50.965Z,21.80
2022-11-10T18:22:16.550Z,21.90
2022-11-10T18:23:40.222Z,21.80
2022-11-10T18:25:01.476Z,21.80
2022-11-10T18:26:24.763Z,21.80
2022-11-10T18:27:46.023Z,21.90
2022-11-10T18:29:06.904Z,21.80
2022-11-10T18:30:35.095Z,21.80
2022-11-10T18:32:00.174Z,21.80
2022-11-10T18:33:21.210Z,21.80
2022-11-10T18:34:42.654Z,21.80
2022-11-10T18:36:04.096Z,21.70
2022-11-10T18:37:26.544Z,21.80
2022-11-10T18:38:50.294Z,21.80
2022-11-10T18:40:12.137Z,21.80
2022-11-10T18:41:50.346Z,21.80
2022-11-10T18:43:12.183Z,21.70
2022-11-10T18:44:36.818Z,21.70
2022-11-10T18:45:57.821Z,21.80
2022-11-10T18:47:21.482Z,21.70
2022-11-10T18:48:42.950Z,21.80
2022-11-10T18:50:04.142Z,21.70
2022-11-10T18:51:27.508Z,21.70
2022-11-10T18:52:48.640Z,21.70
2022-11-10T18:54:09.514Z,21.70
2022-11-10T18:55:31.272Z,21.70
2022-11-10T18:56:59.299Z,21.70
2022-11-10T18:58:22.829Z,21.80
2022-11-10T18:59:45.854Z,21.70
2022-11-10T19:01:10.322Z,21.60
2022-11-10T19:02:34.353Z,21.70
2022-11-10T19:03:58.153Z,21.70
2022-11-10T19:05:19.834Z,21.70
2022-11-10T19:06:40.982Z,21.70
2022-11-10T19:08:01.771Z,21.60
2022-11-10T19:09:25.979Z,21.70
2022-11-10T19:10:49.833Z,21.70
2022-11-10T19:12:11.975Z,21.60
2022-11-10T19:13:33.150Z,21.70
2022-11-10T19:14:56.005Z,21.60
2022-11-10T19:16:20.174Z,21.60
2022-11-10T19:17:44.177Z,21.70
2022-11-10T19:19:10.295Z,21.60
2022-11-10T19:20:31.280Z,21.70
2022-11-10T19:21:52.329Z,21.60
2022-11-10T19:23:13.440Z,21.70
2022-11-10T19:24:53.727Z,21.70
2022-11-10T19:26:22.486Z,21.70
2022-11-10T19:27:44.013Z,21.60
2022-11-10T19:29:05.400Z,21.60
2022-11-10T19:30:26.530Z,21.60
2022-11-10T19:31:49.106Z,21.70
2022-11-10T19:33:09.771Z,21.60
2022-11-10T19:34:31.769Z,21.60
2022-11-10T19:35:57.969Z,21.60
2022-11-10T19:37:22.032Z,21.60
2022-11-10T19:38:45.215Z,21.60
2022-11-10T19:40:11.507Z,21.60
2022-11-10T19:41:32.684Z,21.60
2022-11-10T19:42:53.466Z,21.60
2022-11-10T19:44:19.011Z,21.60
2022-11-10T19:45:43.451Z,21.60
2022-11-10T19:47:06.290Z,21.60
2022-11-10T19:48:28.484Z,21.60
2022-11-10T19:49:49.498Z,21.60